sensor_id;sensor_type;location;lat;lon;timestamp;P1;durP1;ratioP1;P2;durP2;ratioP2
10945;SDS011;5525;42.648;23.368;2023-04-08T00:00:25;18.50;;;14.18;;
10945;SDS011;5525;42.648;23.368;2023-04-08T00:02:51;18.65;;;14.00;;
10945;SDS011;5525;42.648;23.368;2023-04-08T00:05:19;18.75;;;15.43;;
10945;SDS011;5525;42.648;23.368;2023-04-08T00:07:46;19.00;;;15.38;;
10945;SDS011;5525;42.648;23.368;2023-04-08T00:10:13;23.73;;;16.50;;
10945;SDS011;5525;42.648;23.368;2023-04-08T00:12:40;21.23;;;16.58;;
10945;SDS011;5525;42.648;23.368;2023-04-08T00:15:06;20.58;;;16.83;;
10945;SDS011;5525;42.648;23.368;2023-04-08T00:17:33;21.15;;;16.55;;
10945;SDS011;5525;42.648;23.368;2023-04-08T00:20:00;23.52;;;16.38;;
10945;SDS011;5525;42.648;23.368;2023-04-08T00:22:29;21.65;;;17.00;;
10945;SDS011;5525;42.648;23.368;2023-04-08T00:24:56;22.13;;;16.52;;
10945;SDS011;5525;42.648;23.368;2023-04-08T00:27:23;20.50;;;16.90;;
10945;SDS011;5525;42.648;23.368;2023-04-08T00:29:50;21.98;;;16.58;;
10945;SDS011;5525;42.648;23.368;2023-04-08T00:32:18;19.77;;;16.10;;
10945;SDS011;5525;42.648;23.368;2023-04-08T00:34:44;18.05;;;13.73;;
10945;SDS011;5525;42.648;23.368;2023-04-08T00:37:11;16.65;;;13.68;;
10945;SDS011;5525;42.648;23.368;2023-04-08T00:39:39;17.40;;;12.98;;
10945;SDS011;5525;42.648;23.368;2023-04-08T00:42:06;15.05;;;11.32;;
10945;SDS011;5525;42.648;23.368;2023-04-08T00:44:33;12.50;;;11.20;;
10945;SDS011;5525;42.648;23.368;2023-04-08T00:47:00;12.32;;;10.02;;
10945;SDS011;5525;42.648;23.368;2023-04-08T00:49:29;14.90;;;11.35;;
10945;SDS011;5525;42.648;23.368;2023-04-08T00:51:57;14.52;;;11.85;;
10945;SDS011;5525;42.648;23.368;2023-04-08T00:54:24;14.77;;;12.05;;
10945;SDS011;5525;42.648;23.368;2023-04-08T00:56:52;15.73;;;12.88;;
10945;SDS011;5525;42.648;23.368;2023-04-08T00:59:20;16.80;;;13.48;;
10945;SDS011;5525;42.648;23.368;2023-04-08T01:01:49;16.95;;;13.43;;
10945;SDS011;5525;42.648;23.368;2023-04-08T01:04:23;20.25;;;14.73;;
10945;SDS011;5525;42.648;23.368;2023-04-08T01:06:58;18.48;;;15.20;;
10945;SDS011;5525;42.648;23.368;2023-04-08T01:09:29;19.73;;;15.68;;
10945;SDS011;5525;42.648;23.368;2023-04-08T01:12:00;18.77;;;14.48;;
10945;SDS011;5525;42.648;23.368;2023-04-08T01:14:31;19.85;;;15.73;;
10945;SDS011;5525;42.648;23.368;2023-04-08T01:17:03;22.25;;;16.80;;
10945;SDS011;5525;42.648;23.368;2023-04-08T01:19:38;19.23;;;15.30;;
10945;SDS011;5525;42.648;23.368;2023-04-08T01:22:10;23.25;;;16.10;;
10945;SDS011;5525;42.648;23.368;2023-04-08T01:24:45;20.63;;;16.05;;
10945;SDS011;5525;42.648;23.368;2023-04-08T01:27:16;21.55;;;16.02;;
10945;SDS011;5525;42.648;23.368;2023-04-08T01:29:44;23.27;;;17.17;;
10945;SDS011;5525;42.648;23.368;2023-04-08T01:32:14;19.70;;;15.93;;
10945;SDS011;5525;42.648;23.368;2023-04-08T01:34:42;23.95;;;18.80;;
10945;SDS011;5525;42.648;23.368;2023-04-08T01:37:10;21.80;;;17.25;;
10945;SDS011;5525;42.648;23.368;2023-04-08T01:39:38;22.10;;;17.30;;
10945;SDS011;5525;42.648;23.368;2023-04-08T01:42:07;20.70;;;15.45;;
10945;SDS011;5525;42.648;23.368;2023-04-08T01:44:36;16.33;;;13.85;;
10945;SDS011;5525;42.648;23.368;2023-04-08T01:47:05;17.35;;;14.00;;
10945;SDS011;5525;42.648;23.368;2023-04-08T01:49:32;18.70;;;15.45;;
10945;SDS011;5525;42.648;23.368;2023-04-08T01:51:59;19.42;;;15.52;;
10945;SDS011;5525;42.648;23.368;2023-04-08T01:54:26;19.60;;;15.68;;
10945;SDS011;5525;42.648;23.368;2023-04-08T01:56:54;18.95;;;15.50;;
10945;SDS011;5525;42.648;23.368;2023-04-08T01:59:22;23.70;;;15.23;;
10945;SDS011;5525;42.648;23.368;2023-04-08T02:01:56;19.85;;;14.80;;
10945;SDS011;5525;42.648;23.368;2023-04-08T02:04:24;19.10;;;15.05;;
10945;SDS011;5525;42.648;23.368;2023-04-08T02:06:51;17.67;;;14.27;;
10945;SDS011;5525;42.648;23.368;2023-04-08T02:09:18;15.38;;;12.05;;
10945;SDS011;5525;42.648;23.368;2023-04-08T02:11:44;14.88;;;11.57;;
10945;SDS011;5525;42.648;23.368;2023-04-08T02:14:11;12.88;;;11.40;;
10945;SDS011;5525;42.648;23.368;2023-04-08T02:16:38;13.93;;;11.60;;
10945;SDS011;5525;42.648;23.368;2023-04-08T02:19:10;15.00;;;10.98;;
10945;SDS011;5525;42.648;23.368;2023-04-08T02:21:42;12.88;;;10.52;;
10945;SDS011;5525;42.648;23.368;2023-04-08T02:24:12;14.05;;;10.68;;
10945;SDS011;5525;42.648;23.368;2023-04-08T02:26:43;11.63;;;9.95;;
10945;SDS011;5525;42.648;23.368;2023-04-08T02:29:11;15.02;;;10.77;;
10945;SDS011;5525;42.648;23.368;2023-04-08T02:31:39;12.18;;;10.20;;
10945;SDS011;5525;42.648;23.368;2023-04-08T02:34:07;11.75;;;10.20;;
10945;SDS011;5525;42.648;23.368;2023-04-08T02:36:36;12.70;;;10.27;;
10945;SDS011;5525;42.648;23.368;2023-04-08T02:39:05;11.80;;;10.15;;
10945;SDS011;5525;42.648;23.368;2023-04-08T02:41:32;12.70;;;10.32;;
10945;SDS011;5525;42.648;23.368;2023-04-08T02:43:58;12.48;;;11.10;;
10945;SDS011;5525;42.648;23.368;2023-04-08T02:46:25;13.50;;;11.32;;
10945;SDS011;5525;42.648;23.368;2023-04-08T02:48:52;13.52;;;10.73;;
10945;SDS011;5525;42.648;23.368;2023-04-08T02:51:20;13.13;;;10.93;;
10945;SDS011;5525;42.648;23.368;2023-04-08T02:53:47;13.85;;;10.70;;
10945;SDS011;5525;42.648;23.368;2023-04-08T02:56:13;12.02;;;10.57;;
10945;SDS011;5525;42.648;23.368;2023-04-08T02:58:40;12.00;;;10.80;;
10945;SDS011;5525;42.648;23.368;2023-04-08T03:01:07;13.45;;;10.80;;
10945;SDS011;5525;42.648;23.368;2023-04-08T03:03:34;14.43;;;12.93;;
10945;SDS011;5525;42.648;23.368;2023-04-08T03:06:00;12.63;;;11.00;;
10945;SDS011;5525;42.648;23.368;2023-04-08T03:08:29;12.35;;;11.02;;
10945;SDS011;5525;42.648;23.368;2023-04-08T03:10:56;14.50;;;11.38;;
10945;SDS011;5525;42.648;23.368;2023-04-08T03:13:23;14.25;;;11.50;;
10945;SDS011;5525;42.648;23.368;2023-04-08T03:15:50;13.95;;;11.63;;
10945;SDS011;5525;42.648;23.368;2023-04-08T03:18:16;14.27;;;12.27;;
10945;SDS011;5525;42.648;23.368;2023-04-08T03:20:43;13.77;;;11.38;;
10945;SDS011;5525;42.648;23.368;2023-04-08T03:23:10;14.38;;;11.93;;
10945;SDS011;5525;42.648;23.368;2023-04-08T03:25:38;13.50;;;11.10;;
10945;SDS011;5525;42.648;23.368;2023-04-08T03:28:04;15.02;;;11.68;;
10945;SDS011;5525;42.648;23.368;2023-04-08T03:30:31;14.57;;;12.68;;
10945;SDS011;5525;42.648;23.368;2023-04-08T03:32:58;14.73;;;11.93;;
10945;SDS011;5525;42.648;23.368;2023-04-08T03:35:25;16.35;;;12.00;;
10945;SDS011;5525;42.648;23.368;2023-04-08T03:37:52;13.70;;;12.30;;
10945;SDS011;5525;42.648;23.368;2023-04-08T03:40:19;13.18;;;11.70;;
10945;SDS011;5525;42.648;23.368;2023-04-08T03:42:47;15.38;;;12.60;;
10945;SDS011;5525;42.648;23.368;2023-04-08T03:45:14;15.23;;;12.32;;
10945;SDS011;5525;42.648;23.368;2023-04-08T03:47:41;13.32;;;11.48;;
10945;SDS011;5525;42.648;23.368;2023-04-08T03:50:08;14.18;;;11.73;;
10945;SDS011;5525;42.648;23.368;2023-04-08T03:52:35;13.23;;;11.77;;
10945;SDS011;5525;42.648;23.368;2023-04-08T03:55:02;15.30;;;12.18;;
10945;SDS011;5525;42.648;23.368;2023-04-08T03:57:29;15.40;;;12.10;;
10945;SDS011;5525;42.648;23.368;2023-04-08T03:59:57;19.95;;;12.40;;
10945;SDS011;5525;42.648;23.368;2023-04-08T04:02:23;16.98;;;12.38;;
10945;SDS011;5525;42.648;23.368;2023-04-08T04:04:50;13.80;;;12.23;;
10945;SDS011;5525;42.648;23.368;2023-04-08T04:07:17;14.77;;;12.82;;
10945;SDS011;5525;42.648;23.368;2023-04-08T04:09:43;16.13;;;12.65;;
10945;SDS011;5525;42.648;23.368;2023-04-08T04:12:10;14.07;;;11.75;;
10945;SDS011;5525;42.648;23.368;2023-04-08T04:14:37;15.65;;;13.30;;
10945;SDS011;5525;42.648;23.368;2023-04-08T04:17:05;16.55;;;13.57;;
10945;SDS011;5525;42.648;23.368;2023-04-08T04:19:31;15.82;;;13.18;;
10945;SDS011;5525;42.648;23.368;2023-04-08T04:21:58;19.80;;;14.20;;
10945;SDS011;5525;42.648;23.368;2023-04-08T04:24:24;19.27;;;15.48;;
10945;SDS011;5525;42.648;23.368;2023-04-08T04:26:51;18.75;;;16.25;;
10945;SDS011;5525;42.648;23.368;2023-04-08T04:29:18;20.40;;;16.67;;
10945;SDS011;5525;42.648;23.368;2023-04-08T04:31:44;22.67;;;17.15;;
10945;SDS011;5525;42.648;23.368;2023-04-08T04:34:12;25.05;;;17.98;;
10945;SDS011;5525;42.648;23.368;2023-04-08T04:36:39;22.60;;;17.42;;
10945;SDS011;5525;42.648;23.368;2023-04-08T04:39:06;18.45;;;15.27;;
10945;SDS011;5525;42.648;23.368;2023-04-08T04:41:33;18.17;;;15.18;;
10945;SDS011;5525;42.648;23.368;2023-04-08T04:44:04;19.20;;;15.07;;
10945;SDS011;5525;42.648;23.368;2023-04-08T04:46:31;19.08;;;15.30;;
10945;SDS011;5525;42.648;23.368;2023-04-08T04:48:58;18.00;;;14.73;;
10945;SDS011;5525;42.648;23.368;2023-04-08T04:51:26;20.45;;;15.50;;
10945;SDS011;5525;42.648;23.368;2023-04-08T04:53:52;17.58;;;13.73;;
10945;SDS011;5525;42.648;23.368;2023-04-08T04:56:19;19.90;;;15.23;;
10945;SDS011;5525;42.648;23.368;2023-04-08T04:58:46;18.30;;;14.10;;
10945;SDS011;5525;42.648;23.368;2023-04-08T05:01:13;17.52;;;15.00;;
10945;SDS011;5525;42.648;23.368;2023-04-08T05:03:39;17.15;;;14.88;;
10945;SDS011;5525;42.648;23.368;2023-04-08T05:06:06;19.00;;;15.07;;
10945;SDS011;5525;42.648;23.368;2023-04-08T05:08:34;19.50;;;13.98;;
10945;SDS011;5525;42.648;23.368;2023-04-08T05:11:01;18.30;;;13.70;;
10945;SDS011;5525;42.648;23.368;2023-04-08T05:13:27;17.20;;;13.80;;
10945;SDS011;5525;42.648;23.368;2023-04-08T05:15:54;19.55;;;15.18;;
10945;SDS011;5525;42.648;23.368;2023-04-08T05:18:21;23.60;;;14.82;;
10945;SDS011;5525;42.648;23.368;2023-04-08T05:20:47;18.95;;;14.07;;
10945;SDS011;5525;42.648;23.368;2023-04-08T05:23:14;20.98;;;14.07;;
10945;SDS011;5525;42.648;23.368;2023-04-08T05:25:42;18.40;;;13.45;;
10945;SDS011;5525;42.648;23.368;2023-04-08T05:28:09;17.13;;;13.05;;
10945;SDS011;5525;42.648;23.368;2023-04-08T05:30:36;16.42;;;13.13;;
10945;SDS011;5525;42.648;23.368;2023-04-08T05:33:03;15.07;;;12.68;;
10945;SDS011;5525;42.648;23.368;2023-04-08T05:35:29;17.80;;;13.70;;
10945;SDS011;5525;42.648;23.368;2023-04-08T05:37:56;22.90;;;14.35;;
10945;SDS011;5525;42.648;23.368;2023-04-08T05:40:23;24.83;;;15.63;;
10945;SDS011;5525;42.648;23.368;2023-04-08T05:42:51;24.17;;;16.23;;
10945;SDS011;5525;42.648;23.368;2023-04-08T05:45:18;26.00;;;16.25;;
10945;SDS011;5525;42.648;23.368;2023-04-08T05:47:44;17.80;;;15.07;;
10945;SDS011;5525;42.648;23.368;2023-04-08T05:50:11;17.90;;;14.70;;
10945;SDS011;5525;42.648;23.368;2023-04-08T05:52:40;27.08;;;15.52;;
10945;SDS011;5525;42.648;23.368;2023-04-08T05:55:08;21.02;;;14.88;;
10945;SDS011;5525;42.648;23.368;2023-04-08T05:57:34;20.02;;;15.82;;
10945;SDS011;5525;42.648;23.368;2023-04-08T06:00:03;19.10;;;15.52;;
10945;SDS011;5525;42.648;23.368;2023-04-08T06:02:30;21.08;;;16.15;;
10945;SDS011;5525;42.648;23.368;2023-04-08T06:04:57;22.90;;;16.77;;
10945;SDS011;5525;42.648;23.368;2023-04-08T06:07:23;20.40;;;15.93;;
10945;SDS011;5525;42.648;23.368;2023-04-08T06:09:50;20.40;;;15.10;;
10945;SDS011;5525;42.648;23.368;2023-04-08T06:12:17;19.08;;;14.90;;
10945;SDS011;5525;42.648;23.368;2023-04-08T06:14:43;16.13;;;12.70;;
10945;SDS011;5525;42.648;23.368;2023-04-08T06:17:11;14.73;;;12.65;;
10945;SDS011;5525;42.648;23.368;2023-04-08T06:19:38;15.98;;;13.15;;
10945;SDS011;5525;42.648;23.368;2023-04-08T06:22:05;15.25;;;12.60;;
10945;SDS011;5525;42.648;23.368;2023-04-08T06:24:32;15.10;;;12.88;;
10945;SDS011;5525;42.648;23.368;2023-04-08T06:26:59;17.98;;;12.75;;
10945;SDS011;5525;42.648;23.368;2023-04-08T06:29:25;15.75;;;12.65;;
10945;SDS011;5525;42.648;23.368;2023-04-08T06:31:54;14.93;;;12.88;;
10945;SDS011;5525;42.648;23.368;2023-04-08T06:34:22;17.50;;;13.02;;
10945;SDS011;5525;42.648;23.368;2023-04-08T06:36:48;15.77;;;12.65;;
10945;SDS011;5525;42.648;23.368;2023-04-08T06:39:15;14.80;;;12.18;;
10945;SDS011;5525;42.648;23.368;2023-04-08T06:41:43;16.23;;;12.90;;
10945;SDS011;5525;42.648;23.368;2023-04-08T06:44:10;17.10;;;13.10;;
10945;SDS011;5525;42.648;23.368;2023-04-08T06:46:36;14.05;;;12.48;;
10945;SDS011;5525;42.648;23.368;2023-04-08T06:49:03;16.60;;;13.52;;
10945;SDS011;5525;42.648;23.368;2023-04-08T06:51:32;16.40;;;13.27;;
10945;SDS011;5525;42.648;23.368;2023-04-08T06:53:59;15.00;;;12.48;;
10945;SDS011;5525;42.648;23.368;2023-04-08T06:56:26;18.10;;;13.27;;
10945;SDS011;5525;42.648;23.368;2023-04-08T06:58:52;15.75;;;13.93;;
10945;SDS011;5525;42.648;23.368;2023-04-08T07:01:19;16.20;;;13.35;;
10945;SDS011;5525;42.648;23.368;2023-04-08T07:03:46;16.55;;;13.15;;
10945;SDS011;5525;42.648;23.368;2023-04-08T07:06:12;15.70;;;12.98;;
10945;SDS011;5525;42.648;23.368;2023-04-08T07:08:40;14.13;;;12.45;;
10945;SDS011;5525;42.648;23.368;2023-04-08T07:11:07;16.70;;;13.02;;
10945;SDS011;5525;42.648;23.368;2023-04-08T07:13:34;20.23;;;13.60;;
10945;SDS011;5525;42.648;23.368;2023-04-08T07:16:00;14.73;;;12.98;;
10945;SDS011;5525;42.648;23.368;2023-04-08T07:18:27;16.50;;;13.80;;
10945;SDS011;5525;42.648;23.368;2023-04-08T07:20:54;14.70;;;12.68;;
10945;SDS011;5525;42.648;23.368;2023-04-08T07:23:22;17.05;;;12.45;;
10945;SDS011;5525;42.648;23.368;2023-04-08T07:25:50;15.73;;;12.00;;
10945;SDS011;5525;42.648;23.368;2023-04-08T07:28:18;13.60;;;11.77;;
10945;SDS011;5525;42.648;23.368;2023-04-08T07:30:44;14.60;;;12.13;;
10945;SDS011;5525;42.648;23.368;2023-04-08T07:33:11;17.38;;;12.85;;
10945;SDS011;5525;42.648;23.368;2023-04-08T07:35:38;15.50;;;12.90;;
10945;SDS011;5525;42.648;23.368;2023-04-08T07:38:06;17.33;;;13.45;;
10945;SDS011;5525;42.648;23.368;2023-04-08T07:40:35;14.30;;;11.63;;
10945;SDS011;5525;42.648;23.368;2023-04-08T07:43:03;15.32;;;11.68;;
10945;SDS011;5525;42.648;23.368;2023-04-08T07:45:30;12.77;;;11.48;;
10945;SDS011;5525;42.648;23.368;2023-04-08T07:47:57;13.05;;;11.52;;
10945;SDS011;5525;42.648;23.368;2023-04-08T07:50:23;14.55;;;12.45;;
10945;SDS011;5525;42.648;23.368;2023-04-08T07:52:50;14.43;;;11.85;;
10945;SDS011;5525;42.648;23.368;2023-04-08T07:55:17;15.43;;;12.73;;
10945;SDS011;5525;42.648;23.368;2023-04-08T07:57:44;13.32;;;11.95;;
10945;SDS011;5525;42.648;23.368;2023-04-08T08:00:12;15.00;;;11.63;;
10945;SDS011;5525;42.648;23.368;2023-04-08T08:02:44;15.43;;;13.57;;
10945;SDS011;5525;42.648;23.368;2023-04-08T08:05:12;15.27;;;12.65;;
10945;SDS011;5525;42.648;23.368;2023-04-08T08:07:38;13.45;;;12.05;;
10945;SDS011;5525;42.648;23.368;2023-04-08T08:10:05;14.02;;;11.90;;
10945;SDS011;5525;42.648;23.368;2023-04-08T08:12:33;15.55;;;12.00;;
10945;SDS011;5525;42.648;23.368;2023-04-08T08:15:00;15.30;;;12.00;;
10945;SDS011;5525;42.648;23.368;2023-04-08T08:17:28;13.85;;;11.27;;
10945;SDS011;5525;42.648;23.368;2023-04-08T08:19:57;11.90;;;10.70;;
10945;SDS011;5525;42.648;23.368;2023-04-08T08:22:24;12.63;;;11.15;;
10945;SDS011;5525;42.648;23.368;2023-04-08T08:24:53;13.77;;;10.70;;
10945;SDS011;5525;42.648;23.368;2023-04-08T08:27:21;12.32;;;11.00;;
10945;SDS011;5525;42.648;23.368;2023-04-08T08:29:48;13.02;;;10.73;;
10945;SDS011;5525;42.648;23.368;2023-04-08T08:32:15;13.63;;;12.00;;
10945;SDS011;5525;42.648;23.368;2023-04-08T08:34:43;16.35;;;13.18;;
10945;SDS011;5525;42.648;23.368;2023-04-08T08:37:10;14.82;;;12.32;;
10945;SDS011;5525;42.648;23.368;2023-04-08T08:39:36;12.82;;;11.45;;
10945;SDS011;5525;42.648;23.368;2023-04-08T08:42:03;15.75;;;13.00;;
10945;SDS011;5525;42.648;23.368;2023-04-08T08:44:30;16.02;;;13.25;;
10945;SDS011;5525;42.648;23.368;2023-04-08T08:46:56;14.80;;;13.20;;
10945;SDS011;5525;42.648;23.368;2023-04-08T08:49:23;17.27;;;15.05;;
10945;SDS011;5525;42.648;23.368;2023-04-08T08:51:51;16.75;;;14.20;;
10945;SDS011;5525;42.648;23.368;2023-04-08T08:54:20;17.40;;;14.75;;
10945;SDS011;5525;42.648;23.368;2023-04-08T08:56:47;17.50;;;15.63;;
10945;SDS011;5525;42.648;23.368;2023-04-08T08:59:13;19.23;;;15.35;;
10945;SDS011;5525;42.648;23.368;2023-04-08T09:01:40;18.77;;;15.55;;
10945;SDS011;5525;42.648;23.368;2023-04-08T09:04:11;18.83;;;15.77;;
10945;SDS011;5525;42.648;23.368;2023-04-08T09:06:42;20.92;;;15.77;;
10945;SDS011;5525;42.648;23.368;2023-04-08T09:09:12;19.27;;;15.57;;
10945;SDS011;5525;42.648;23.368;2023-04-08T09:11:39;19.83;;;15.02;;
10945;SDS011;5525;42.648;23.368;2023-04-08T09:14:20;19.42;;;15.18;;
10945;SDS011;5525;42.648;23.368;2023-04-08T09:16:47;16.73;;;13.20;;
10945;SDS011;5525;42.648;23.368;2023-04-08T09:19:14;16.63;;;11.80;;
10945;SDS011;5525;42.648;23.368;2023-04-08T09:21:41;14.07;;;11.73;;
10945;SDS011;5525;42.648;23.368;2023-04-08T09:24:08;15.27;;;12.10;;
10945;SDS011;5525;42.648;23.368;2023-04-08T09:26:53;15.13;;;12.38;;
10945;SDS011;5525;42.648;23.368;2023-04-08T09:29:20;14.70;;;13.13;;
10945;SDS011;5525;42.648;23.368;2023-04-08T09:31:52;15.77;;;13.23;;
10945;SDS011;5525;42.648;23.368;2023-04-08T09:34:19;14.80;;;12.98;;
10945;SDS011;5525;42.648;23.368;2023-04-08T09:36:47;15.70;;;12.98;;
10945;SDS011;5525;42.648;23.368;2023-04-08T09:39:14;15.25;;;12.98;;
10945;SDS011;5525;42.648;23.368;2023-04-08T09:41:42;17.98;;;13.68;;
10945;SDS011;5525;42.648;23.368;2023-04-08T09:44:10;14.63;;;11.65;;
10945;SDS011;5525;42.648;23.368;2023-04-08T09:46:38;13.65;;;12.07;;
10945;SDS011;5525;42.648;23.368;2023-04-08T09:49:06;14.65;;;12.98;;
10945;SDS011;5525;42.648;23.368;2023-04-08T09:51:39;13.88;;;11.45;;
10945;SDS011;5525;42.648;23.368;2023-04-08T09:54:10;13.52;;;11.25;;
10945;SDS011;5525;42.648;23.368;2023-04-08T09:56:40;18.67;;;14.32;;
10945;SDS011;5525;42.648;23.368;2023-04-08T09:59:14;14.20;;;12.23;;
10945;SDS011;5525;42.648;23.368;2023-04-08T10:01:48;15.45;;;12.40;;
10945;SDS011;5525;42.648;23.368;2023-04-08T10:04:17;13.95;;;12.40;;
10945;SDS011;5525;42.648;23.368;2023-04-08T10:06:46;14.95;;;13.35;;
10945;SDS011;5525;42.648;23.368;2023-04-08T10:09:18;14.40;;;12.98;;
10945;SDS011;5525;42.648;23.368;2023-04-08T10:11:46;14.60;;;13.10;;
10945;SDS011;5525;42.648;23.368;2023-04-08T10:14:14;14.82;;;13.23;;
10945;SDS011;5525;42.648;23.368;2023-04-08T10:16:41;14.75;;;13.07;;
10945;SDS011;5525;42.648;23.368;2023-04-08T10:22:10;14.50;;;12.63;;
10945;SDS011;5525;42.648;23.368;2023-04-08T10:25:29;14.98;;;12.07;;
10945;SDS011;5525;42.648;23.368;2023-04-08T10:27:57;13.85;;;12.00;;
10945;SDS011;5525;42.648;23.368;2023-04-08T10:30:41;14.50;;;12.68;;
10945;SDS011;5525;42.648;23.368;2023-04-08T10:33:09;15.68;;;12.60;;
10945;SDS011;5525;42.648;23.368;2023-04-08T10:35:38;14.80;;;12.10;;
10945;SDS011;5525;42.648;23.368;2023-04-08T10:38:07;16.40;;;12.48;;
10945;SDS011;5525;42.648;23.368;2023-04-08T10:40:35;14.80;;;12.18;;
10945;SDS011;5525;42.648;23.368;2023-04-08T10:43:03;13.25;;;11.52;;
10945;SDS011;5525;42.648;23.368;2023-04-08T10:45:30;14.13;;;11.77;;
10945;SDS011;5525;42.648;23.368;2023-04-08T10:48:11;16.05;;;12.48;;
10945;SDS011;5525;42.648;23.368;2023-04-08T10:50:38;15.65;;;12.68;;
10945;SDS011;5525;42.648;23.368;2023-04-08T10:53:06;15.93;;;11.88;;
10945;SDS011;5525;42.648;23.368;2023-04-08T10:55:33;13.93;;;11.80;;
10945;SDS011;5525;42.648;23.368;2023-04-08T10:58:04;15.50;;;11.45;;
10945;SDS011;5525;42.648;23.368;2023-04-08T11:00:32;12.80;;;10.30;;
10945;SDS011;5525;42.648;23.368;2023-04-08T11:02:59;15.70;;;11.20;;
10945;SDS011;5525;42.648;23.368;2023-04-08T11:05:28;12.52;;;10.85;;
10945;SDS011;5525;42.648;23.368;2023-04-08T11:07:55;13.38;;;10.43;;
10945;SDS011;5525;42.648;23.368;2023-04-08T11:10:22;12.27;;;10.20;;
10945;SDS011;5525;42.648;23.368;2023-04-08T11:12:49;13.18;;;11.13;;
10945;SDS011;5525;42.648;23.368;2023-04-08T11:15:18;11.95;;;9.85;;
10945;SDS011;5525;42.648;23.368;2023-04-08T11:17:45;11.93;;;10.63;;
10945;SDS011;5525;42.648;23.368;2023-04-08T11:20:13;11.82;;;10.48;;
10945;SDS011;5525;42.648;23.368;2023-04-08T11:22:41;13.60;;;11.00;;
10945;SDS011;5525;42.648;23.368;2023-04-08T11:25:09;13.55;;;10.98;;
10945;SDS011;5525;42.648;23.368;2023-04-08T11:27:36;11.93;;;10.52;;
10945;SDS011;5525;42.648;23.368;2023-04-08T11:30:05;13.48;;;10.88;;
10945;SDS011;5525;42.648;23.368;2023-04-08T11:32:33;13.10;;;11.05;;
10945;SDS011;5525;42.648;23.368;2023-04-08T11:35:03;14.25;;;10.70;;
10945;SDS011;5525;42.648;23.368;2023-04-08T11:37:37;12.38;;;10.00;;
10945;SDS011;5525;42.648;23.368;2023-04-08T11:40:10;10.73;;;9.40;;
10945;SDS011;5525;42.648;23.368;2023-04-08T11:42:37;11.13;;;9.27;;
10945;SDS011;5525;42.648;23.368;2023-04-08T11:45:11;9.70;;;8.70;;
10945;SDS011;5525;42.648;23.368;2023-04-08T11:47:38;10.57;;;9.48;;
10945;SDS011;5525;42.648;23.368;2023-04-08T11:50:06;12.02;;;10.57;;
10945;SDS011;5525;42.648;23.368;2023-04-08T11:52:40;11.85;;;9.63;;
10945;SDS011;5525;42.648;23.368;2023-04-08T11:55:08;11.68;;;10.48;;
10945;SDS011;5525;42.648;23.368;2023-04-08T11:57:37;11.40;;;9.80;;
10945;SDS011;5525;42.648;23.368;2023-04-08T12:00:04;11.73;;;10.35;;
10945;SDS011;5525;42.648;23.368;2023-04-08T12:02:31;12.60;;;10.43;;
10945;SDS011;5525;42.648;23.368;2023-04-08T12:04:58;13.25;;;10.60;;
10945;SDS011;5525;42.648;23.368;2023-04-08T12:07:25;13.18;;;11.25;;
10945;SDS011;5525;42.648;23.368;2023-04-08T12:09:52;12.73;;;10.43;;
10945;SDS011;5525;42.648;23.368;2023-04-08T12:12:20;11.55;;;10.35;;
10945;SDS011;5525;42.648;23.368;2023-04-08T12:14:46;10.80;;;9.68;;
10945;SDS011;5525;42.648;23.368;2023-04-08T12:17:13;10.75;;;8.82;;
10945;SDS011;5525;42.648;23.368;2023-04-08T12:19:40;9.40;;;8.38;;
10945;SDS011;5525;42.648;23.368;2023-04-08T12:22:06;8.43;;;7.38;;
10945;SDS011;5525;42.648;23.368;2023-04-08T12:24:33;9.48;;;8.18;;
10945;SDS011;5525;42.648;23.368;2023-04-08T12:27:00;8.98;;;8.02;;
10945;SDS011;5525;42.648;23.368;2023-04-08T12:29:30;10.88;;;8.90;;
10945;SDS011;5525;42.648;23.368;2023-04-08T12:31:57;14.05;;;8.57;;
10945;SDS011;5525;42.648;23.368;2023-04-08T12:34:23;8.85;;;7.38;;
10945;SDS011;5525;42.648;23.368;2023-04-08T12:36:50;7.45;;;6.70;;
10945;SDS011;5525;42.648;23.368;2023-04-08T12:39:17;8.10;;;7.00;;
10945;SDS011;5525;42.648;23.368;2023-04-08T12:41:43;7.88;;;7.07;;
10945;SDS011;5525;42.648;23.368;2023-04-08T12:44:10;8.60;;;7.07;;
10945;SDS011;5525;42.648;23.368;2023-04-08T12:46:38;8.23;;;7.40;;
10945;SDS011;5525;42.648;23.368;2023-04-08T12:49:05;8.60;;;7.70;;
10945;SDS011;5525;42.648;23.368;2023-04-08T12:51:31;9.13;;;7.85;;
10945;SDS011;5525;42.648;23.368;2023-04-08T12:53:58;7.25;;;6.47;;
10945;SDS011;5525;42.648;23.368;2023-04-08T12:56:25;10.15;;;7.30;;
10945;SDS011;5525;42.648;23.368;2023-04-08T12:58:52;8.90;;;8.00;;
10945;SDS011;5525;42.648;23.368;2023-04-08T13:01:19;9.75;;;8.02;;
10945;SDS011;5525;42.648;23.368;2023-04-08T13:03:48;9.55;;;8.43;;
10945;SDS011;5525;42.648;23.368;2023-04-08T13:06:14;8.65;;;7.60;;
10945;SDS011;5525;42.648;23.368;2023-04-08T13:08:41;9.38;;;8.10;;
10945;SDS011;5525;42.648;23.368;2023-04-08T13:11:08;8.75;;;7.72;;
10945;SDS011;5525;42.648;23.368;2023-04-08T13:13:35;9.68;;;8.50;;
10945;SDS011;5525;42.648;23.368;2023-04-08T13:16:01;10.10;;;9.00;;
10945;SDS011;5525;42.648;23.368;2023-04-08T13:18:28;10.05;;;8.27;;
10945;SDS011;5525;42.648;23.368;2023-04-08T13:20:56;10.10;;;8.65;;
10945;SDS011;5525;42.648;23.368;2023-04-08T13:23:23;11.00;;;8.38;;
10945;SDS011;5525;42.648;23.368;2023-04-08T13:25:50;11.63;;;8.18;;
10945;SDS011;5525;42.648;23.368;2023-04-08T13:28:16;9.50;;;8.57;;
10945;SDS011;5525;42.648;23.368;2023-04-08T13:30:43;10.38;;;8.48;;
10945;SDS011;5525;42.648;23.368;2023-04-08T13:33:10;10.10;;;9.10;;
10945;SDS011;5525;42.648;23.368;2023-04-08T13:35:36;10.02;;;8.45;;
10945;SDS011;5525;42.648;23.368;2023-04-08T13:38:04;9.68;;;8.18;;
10945;SDS011;5525;42.648;23.368;2023-04-08T13:40:31;10.98;;;8.95;;
10945;SDS011;5525;42.648;23.368;2023-04-08T13:42:58;13.27;;;8.80;;
10945;SDS011;5525;42.648;23.368;2023-04-08T13:45:25;10.95;;;8.77;;
10945;SDS011;5525;42.648;23.368;2023-04-08T13:47:52;8.95;;;8.02;;
10945;SDS011;5525;42.648;23.368;2023-04-08T13:50:18;11.50;;;8.90;;
10945;SDS011;5525;42.648;23.368;2023-04-08T13:52:45;9.60;;;8.60;;
10945;SDS011;5525;42.648;23.368;2023-04-08T13:55:13;8.93;;;7.95;;
10945;SDS011;5525;42.648;23.368;2023-04-08T13:57:40;9.48;;;8.55;;
10945;SDS011;5525;42.648;23.368;2023-04-08T14:00:07;8.57;;;6.72;;
10945;SDS011;5525;42.648;23.368;2023-04-08T14:02:35;8.23;;;6.88;;
10945;SDS011;5525;42.648;23.368;2023-04-08T14:05:02;9.20;;;8.23;;
10945;SDS011;5525;42.648;23.368;2023-04-08T14:07:29;8.98;;;8.00;;
10945;SDS011;5525;42.648;23.368;2023-04-08T14:09:55;10.82;;;8.93;;
10945;SDS011;5525;42.648;23.368;2023-04-08T14:12:24;10.15;;;9.07;;
10945;SDS011;5525;42.648;23.368;2023-04-08T14:14:50;11.45;;;9.23;;
10945;SDS011;5525;42.648;23.368;2023-04-08T14:17:17;9.82;;;8.82;;
10945;SDS011;5525;42.648;23.368;2023-04-08T14:19:43;11.45;;;8.93;;
10945;SDS011;5525;42.648;23.368;2023-04-08T14:22:10;10.35;;;9.35;;
10945;SDS011;5525;42.648;23.368;2023-04-08T14:24:40;10.50;;;9.38;;
10945;SDS011;5525;42.648;23.368;2023-04-08T14:27:07;11.40;;;10.20;;
10945;SDS011;5525;42.648;23.368;2023-04-08T14:29:35;11.60;;;10.23;;
10945;SDS011;5525;42.648;23.368;2023-04-08T14:32:02;11.23;;;10.13;;